Time;durP1;ratioP1;P1;durP2;ratioP2;P2;SDS_P1;SDS_P2;PMS_P1;PMS_P2;Temp;Humidity;BMP_temperature;BMP_pressure;BME280_temperature;BME280_humidity;BME280_pressure;Samples;Min_cycle;Max_cycle;Signal;HPM_P1;HPM_P2
2021/06/19 00:00:13;;;;;;;;;;;24.90;71.40;;;;;;4995333;28;20362;-71
2021/06/19 00:02:38;;;;;;;;;;;24.90;71.40;;;;;;4994942;28;19968;-71
2021/06/19 00:05:04;;;;;;;;;;;24.80;71.30;;;;;;5013177;28;20321;-61
2021/06/19 00:07:30;;;;;;;;;;;24.80;71.30;;;;;;5012668;28;19956;-62
2021/06/19 00:09:55;;;;;;;;;;;24.80;71.40;;;;;;5012921;28;19992;-61
2021/06/19 00:12:21;;;;;;;;;;;24.60;71.60;;;;;;4994900;28;19921;-62
2021/06/19 00:14:47;;;;;;;;;;;24.60;72.10;;;;;;5011780;28;19924;-61
2021/06/19 00:17:13;;;;;;;;;;;24.60;72.40;;;;;;5012415;28;20001;-61
2021/06/19 00:19:38;;;;;;;;;;;24.70;72.70;;;;;;5012387;28;19917;-62
2021/06/19 00:22:04;;;;;;;;;;;24.70;72.70;;;;;;5012663;28;20027;-62
2021/06/19 00:24:39;;;;;;;;;;;24.70;72.80;;;;;;4994747;28;20055;-62
2021/06/19 00:27:06;;;;;;;;;;;24.80;72.90;;;;;;5012292;28;19921;-62
2021/06/19 00:29:31;;;;;;;;;;;24.80;73.00;;;;;;4995158;28;19996;-61
2021/06/19 00:31:57;;;;;;;;;;;24.80;72.90;;;;;;5011989;28;19988;-61
2021/06/19 00:34:23;;;;;;;;;;;24.90;72.90;;;;;;5012460;28;19975;-61
2021/06/19 00:36:49;;;;;;;;;;;24.90;72.80;;;;;;4994255;28;19918;-62
2021/06/19 00:39:15;;;;;;;;;;;24.80;72.70;;;;;;5012367;28;19924;-62
2021/06/19 00:41:40;;;;;;;;;;;24.80;72.80;;;;;;5012389;28;19918;-61
2021/06/19 00:44:15;;;;;;;;;;;24.80;73.00;;;;;;4994224;28;19968;-62
2021/06/19 00:46:41;;;;;;;;;;;24.70;73.00;;;;;;4994761;28;20425;-62
2021/06/19 00:49:06;;;;;;;;;;;24.70;73.10;;;;;;5011897;28;19926;-62
2021/06/19 00:51:32;;;;;;;;;;;24.60;73.20;;;;;;5011044;28;19917;-62
2021/06/19 00:53:58;;;;;;;;;;;24.60;73.30;;;;;;5012170;28;19918;-61
2021/06/19 00:56:23;;;;;;;;;;;24.50;73.50;;;;;;4994271;28;19917;-61
2021/06/19 00:58:49;;;;;;;;;;;24.50;73.60;;;;;;4994344;28;20309;-62
2021/06/19 01:01:15;;;;;;;;;;;24.50;73.60;;;;;;5012219;28;20358;-62
2021/06/19 01:03:41;;;;;;;;;;;24.40;73.60;;;;;;4993878;28;19925;-62
2021/06/19 01:06:07;;;;;;;;;;;24.40;73.80;;;;;;5012145;28;19918;-62
2021/06/19 01:08:32;;;;;;;;;;;24.40;73.90;;;;;;5011302;28;20400;-62
2021/06/19 01:10:58;;;;;;;;;;;24.30;74.00;;;;;;5011972;28;20016;-62
2021/06/19 01:13:24;;;;;;;;;;;24.20;74.20;;;;;;4993414;28;20008;-62
2021/06/19 01:15:49;;;;;;;;;;;24.20;74.40;;;;;;5011512;28;19917;-62
2021/06/19 01:18:15;;;;;;;;;;;24.20;75.10;;;;;;4994099;28;19921;-61
2021/06/19 01:20:40;;;;;;;;;;;24.10;74.70;;;;;;5011791;28;19917;-62
2021/06/19 01:23:06;;;;;;;;;;;24.10;74.80;;;;;;5011360;28;19991;-61
2021/06/19 01:25:37;;;;;;;;;;;24.00;74.80;;;;;;5011841;28;19929;-61
2021/06/19 01:28:05;;;;;;;;;;;23.90;75.10;;;;;;4993474;28;19926;-62
2021/06/19 01:30:31;;;;;;;;;;;23.90;75.30;;;;;;5011703;28;19925;-61
2021/06/19 01:32:56;;;;;;;;;;;23.80;75.40;;;;;;5011657;28;19917;-62
2021/06/19 01:35:22;;;;;;;;;;;23.70;75.50;;;;;;5011056;28;19975;-62
2021/06/19 01:37:50;;;;;;;;;;;23.70;75.70;;;;;;4993937;28;19952;-62
2021/06/19 01:40:20;;;;;;;;;;;23.60;76.00;;;;;;5009954;28;19917;-61
2021/06/19 01:42:46;;;;;;;;;;;23.60;76.30;;;;;;5011603;28;19949;-61
2021/06/19 01:45:12;;;;;;;;;;;23.50;76.40;;;;;;5011538;28;20385;-62
2021/06/19 01:47:37;;;;;;;;;;;23.40;76.60;;;;;;5010768;28;19979;-62
2021/06/19 01:50:20;;;;;;;;;;;23.40;76.80;;;;;;4994037;28;19918;-62
2021/06/19 01:52:45;;;;;;;;;;;23.40;77.10;;;;;;5011467;28;19917;-61
2021/06/19 01:55:11;;;;;;;;;;;23.30;77.30;;;;;;5011514;28;20423;-62
2021/06/19 01:57:38;;;;;;;;;;;23.30;77.50;;;;;;5010738;28;19917;-62
2021/06/19 02:00:05;;;;;;;;;;;23.30;77.70;;;;;;5011529;28;20374;-62
2021/06/19 02:02:31;;;;;;;;;;;23.20;77.80;;;;;;5011608;28;19964;-62
2021/06/19 02:04:56;;;;;;;;;;;23.30;78.00;;;;;;5011054;28;20341;-62
2021/06/19 02:07:22;;;;;;;;;;;23.20;78.10;;;;;;5011033;28;20399;-61
2021/06/19 02:09:48;;;;;;;;;;;23.20;78.10;;;;;;5010915;28;19918;-62
2021/06/19 02:12:13;;;;;;;;;;;23.10;78.20;;;;;;5011211;28;19918;-62
2021/06/19 02:14:39;;;;;;;;;;;23.10;78.50;;;;;;5011430;28;19913;-61
2021/06/19 02:17:04;;;;;;;;;;;23.00;78.70;;;;;;5010643;28;19917;-62
2021/06/19 02:19:30;;;;;;;;;;;23.00;79.00;;;;;;5011309;28;19925;-62
2021/06/19 02:21:55;;;;;;;;;;;23.00;79.10;;;;;;5011289;28;20023;-62
2021/06/19 02:24:21;;;;;;;;;;;23.00;79.30;;;;;;5010852;28;20418;-62
2021/06/19 02:26:48;;;;;;;;;;;22.90;79.30;;;;;;5014523;28;19926;-62
2021/06/19 02:29:13;;;;;;;;;;;22.90;79.40;;;;;;5014985;28;19918;-62
2021/06/19 02:31:39;;;;;;;;;;;22.90;79.70;;;;;;5014558;28;19924;-62
2021/06/19 02:34:04;;;;;;;;;;;22.90;79.90;;;;;;4980751;28;19996;-62
2021/06/19 02:36:30;;;;;;;;;;;22.90;79.90;;;;;;5014281;28;19917;-62
2021/06/19 02:38:56;;;;;;;;;;;22.80;79.90;;;;;;5014421;28;19923;-62
2021/06/19 02:41:21;;;;;;;;;;;22.80;80.00;;;;;;5013384;28;19922;-62
2021/06/19 02:43:47;;;;;;;;;;;22.80;80.20;;;;;;5014268;28;19918;-62
2021/06/19 02:46:12;;;;;;;;;;;22.80;80.30;;;;;;5014705;28;19917;-62
2021/06/19 02:48:38;;;;;;;;;;;22.80;80.30;;;;;;4996690;28;19979;-62
2021/06/19 02:51:04;;;;;;;;;;;22.80;80.40;;;;;;5014282;28;19960;-62
2021/06/19 02:53:29;;;;;;;;;;;22.70;80.40;;;;;;5014428;28;19947;-62
2021/06/19 02:55:55;;;;;;;;;;;22.70;80.50;;;;;;5013893;28;19917;-62
2021/06/19 02:58:21;;;;;;;;;;;22.70;80.70;;;;;;5014049;28;19918;-62
2021/06/19 03:00:46;;;;;;;;;;;22.60;80.80;;;;;;5014340;28;20416;-62
2021/06/19 03:03:12;;;;;;;;;;;22.60;80.90;;;;;;5013722;28;19922;-62
2021/06/19 03:05:38;;;;;;;;;;;22.60;81.10;;;;;;4996667;28;20293;-62
2021/06/19 03:08:04;;;;;;;;;;;22.60;81.40;;;;;;5014095;28;19921;-62
2021/06/19 03:10:32;;;;;;;;;;;22.60;81.50;;;;;;4996023;28;19917;-62
2021/06/19 03:12:57;;;;;;;;;;;22.60;81.60;;;;;;4996541;28;19913;-61
2021/06/19 03:15:24;;;;;;;;;;;22.60;81.60;;;;;;5013704;28;19925;-62
2021/06/19 03:17:49;;;;;;;;;;;22.60;81.60;;;;;;4996205;28;19922;-61
2021/06/19 03:20:15;;;;;;;;;;;22.70;81.80;;;;;;5014066;28;19924;-62
2021/06/19 03:22:42;;;;;;;;;;;22.70;81.90;;;;;;5013401;28;19925;-62
2021/06/19 03:25:08;;;;;;;;;;;22.70;82.00;;;;;;4996267;28;19924;-61
2021/06/19 03:27:33;;;;;;;;;;;22.80;82.20;;;;;;4995360;28;20007;-63
2021/06/19 03:29:59;;;;;;;;;;;22.90;82.20;;;;;;5013751;28;19956;-62
2021/06/19 03:32:24;;;;;;;;;;;22.90;82.00;;;;;;4995911;28;19917;-62
2021/06/19 03:34:50;;;;;;;;;;;23.00;82.00;;;;;;5013279;28;20290;-62
2021/06/19 03:37:16;;;;;;;;;;;23.00;81.90;;;;;;4994865;28;20271;-62
2021/06/19 03:39:41;;;;;;;;;;;23.10;82.00;;;;;;5013472;28;20165;-62
2021/06/19 03:42:07;;;;;;;;;;;23.10;82.00;;;;;;5011818;28;19918;-62
2021/06/19 03:44:32;;;;;;;;;;;23.20;82.00;;;;;;5012358;28;19917;-62
2021/06/19 03:46:58;;;;;;;;;;;23.20;82.00;;;;;;5013212;28;20352;-70
2021/06/19 03:49:24;;;;;;;;;;;23.30;82.10;;;;;;5013075;28;19924;-70
2021/06/19 03:51:49;;;;;;;;;;;23.40;82.20;;;;;;5013263;28;20008;-70
2021/06/19 03:54:15;;;;;;;;;;;23.50;82.20;;;;;;5011579;28;19922;-69
2021/06/19 03:56:41;;;;;;;;;;;23.60;82.10;;;;;;4979424;28;19921;-70
2021/06/19 03:59:07;;;;;;;;;;;23.70;82.10;;;;;;5011953;28;19917;-70
2021/06/19 04:01:33;;;;;;;;;;;23.80;81.90;;;;;;5012778;28;19949;-70
2021/06/19 04:03:58;;;;;;;;;;;23.90;81.80;;;;;;5013029;28;19956;-70
2021/06/19 04:06:24;;;;;;;;;;;24.00;81.60;;;;;;5013126;28;19917;-70
2021/06/19 04:08:50;;;;;;;;;;;24.10;81.40;;;;;;5010798;28;19926;-70
2021/06/19 04:11:16;;;;;;;;;;;24.10;81.10;;;;;;5011699;28;20322;-70
2021/06/19 04:13:42;;;;;;;;;;;24.10;80.80;;;;;;5012348;28;19928;-70
2021/06/19 04:16:09;;;;;;;;;;;24.10;80.70;;;;;;4995397;28;19918;-70
2021/06/19 04:18:39;;;;;;;;;;;24.10;80.60;;;;;;4995057;28;20393;-70
2021/06/19 04:21:08;;;;;;;;;;;24.10;80.60;;;;;;5012325;28;19949;-70
2021/06/19 04:23:36;;;;;;;;;;;24.10;80.60;;;;;;5012683;28;19967;-70
2021/06/19 04:26:02;;;;;;;;;;;24.10;80.60;;;;;;4994703;28;19917;-70
2021/06/19 04:28:28;;;;;;;;;;;24.10;80.60;;;;;;4978556;28;20373;-70
2021/06/19 04:30:58;;;;;;;;;;;24.10;80.50;;;;;;4995018;28;20332;-70
2021/06/19 04:33:24;;;;;;;;;;;24.00;80.40;;;;;;4995403;28;19921;-70
2021/06/19 04:35:50;;;;;;;;;;;24.00;80.50;;;;;;5012442;28;19917;-70
2021/06/19 04:38:15;;;;;;;;;;;24.00;80.50;;;;;;5011942;28;19921;-70
2021/06/19 04:40:51;;;;;;;;;;;24.00;80.70;;;;;;5011240;28;19918;-70
2021/06/19 04:43:23;;;;;;;;;;;24.10;80.80;;;;;;5010903;28;19949;-70
2021/06/19 04:45:49;;;;;;;;;;;24.00;80.90;;;;;;5012362;28;19924;-70
2021/06/19 04:48:15;;;;;;;;;;;24.10;81.00;;;;;;5011789;28;19917;-70
2021/06/19 04:50:41;;;;;;;;;;;24.20;81.20;;;;;;5011909;28;20341;-69
2021/06/19 04:53:07;;;;;;;;;;;24.20;81.10;;;;;;4994647;28;19917;-70
2021/06/19 04:55:33;;;;;;;;;;;24.30;81.10;;;;;;5012323;28;20433;-70
2021/06/19 04:58:02;;;;;;;;;;;24.40;81.60;;;;;;4993820;28;20083;-70
2021/06/19 05:00:28;;;;;;;;;;;24.40;81.20;;;;;;4994687;28;20405;-70
2021/06/19 05:02:54;;;;;;;;;;;24.50;81.20;;;;;;5011638;28;19918;-70
2021/06/19 05:05:21;;;;;;;;;;;24.60;81.20;;;;;;4994725;28;19921;-70
2021/06/19 05:07:46;;;;;;;;;;;24.70;81.20;;;;;;5011598;28;19989;-70
2021/06/19 05:10:12;;;;;;;;;;;24.90;81.20;;;;;;5011443;28;19989;-70
2021/06/19 05:12:43;;;;;;;;;;;24.90;81.20;;;;;;5011971;28;19925;-70
2021/06/19 05:15:09;;;;;;;;;;;25.10;81.10;;;;;;5011457;28;19933;-70
2021/06/19 05:17:36;;;;;;;;;;;25.30;81.00;;;;;;5011500;28;19960;-70
2021/06/19 05:20:02;;;;;;;;;;;25.40;80.90;;;;;;4994246;28;19925;-70
2021/06/19 05:22:27;;;;;;;;;;;25.60;80.80;;;;;;5011288;28;19917;-70
2021/06/19 05:24:53;;;;;;;;;;;25.80;80.80;;;;;;5011770;28;19917;-70
2021/06/19 05:27:18;;;;;;;;;;;26.00;80.80;;;;;;5011405;28;19925;-70
2021/06/19 05:29:44;;;;;;;;;;;26.20;80.40;;;;;;4993927;28;19921;-70
2021/06/19 05:32:10;;;;;;;;;;;26.40;79.90;;;;;;5011698;28;19963;-70
2021/06/19 05:34:35;;;;;;;;;;;26.60;79.40;;;;;;4977402;28;19921;-70
2021/06/19 05:37:01;;;;;;;;;;;26.70;78.90;;;;;;4993570;28;20382;-70
2021/06/19 05:39:27;;;;;;;;;;;26.80;79.00;;;;;;4994040;28;19918;-70
2021/06/19 05:41:53;;;;;;;;;;;26.80;77.90;;;;;;5011232;28;19922;-71
2021/06/19 05:44:18;;;;;;;;;;;26.80;77.40;;;;;;5011620;28;20370;-70
2021/06/19 05:46:44;;;;;;;;;;;26.80;76.90;;;;;;5011409;28;19917;-71
2021/06/19 05:49:10;;;;;;;;;;;26.80;77.20;;;;;;5011032;28;19925;-71
2021/06/19 05:51:35;;;;;;;;;;;27.10;78.10;;;;;;4994079;28;19918;-71
2021/06/19 05:54:02;;;;;;;;;;;27.40;76.80;;;;;;5010990;28;20360;-69
2021/06/19 05:56:28;;;;;;;;;;;27.40;75.80;;;;;;5011564;28;19917;-72
2021/06/19 05:58:54;;;;;;;;;;;27.40;75.70;;;;;;5011178;28;20428;-70
2021/06/19 06:01:19;;;;;;;;;;;27.70;75.10;;;;;;5014012;28;20025;-72
2021/06/19 06:03:48;;;;;;;;;;;28.30;77.00;;;;;;4997884;28;19921;-72
2021/06/19 06:06:15;;;;;;;;;;;29.30;76.10;;;;;;5014838;28;20005;-67
2021/06/19 06:08:41;;;;;;;;;;;30.60;75.60;;;;;;5014841;28;19949;-67
2021/06/19 06:11:06;;;;;;;;;;;31.80;72.80;;;;;;5015269;28;20385;-68
2021/06/19 06:13:32;;;;;;;;;;;32.80;69.60;;;;;;4997133;28;19921;-68
2021/06/19 06:15:57;;;;;;;;;;;33.50;65.20;;;;;;4981351;28;20286;-68
2021/06/19 06:18:23;;;;;;;;;;;33.90;62.60;;;;;;4997218;28;19922;-68
2021/06/19 06:20:48;;;;;;;;;;;34.50;62.30;;;;;;5014595;28;19944;-68
2021/06/19 06:23:14;;;;;;;;;;;35.20;59.50;;;;;;4997526;28;19918;-68
2021/06/19 06:25:40;;;;;;;;;;;35.70;57.70;;;;;;5014671;28;20008;-67
2021/06/19 06:28:06;;;;;;;;;;;35.40;54.80;;;;;;5014509;28;19984;-68
2021/06/19 06:30:32;;;;;;;;;;;35.00;53.40;;;;;;5014861;28;19926;-68
2021/06/19 06:32:57;;;;;;;;;;;34.50;52.70;;;;;;4980451;28;19918;-68
2021/06/19 06:35:23;;;;;;;;;;;34.60;54.90;;;;;;4997182;28;19989;-68
2021/06/19 06:37:48;;;;;;;;;;;35.50;54.90;;;;;;5013037;28;19918;-70
2021/06/19 06:40:14;;;;;;;;;;;36.50;53.90;;;;;;5013022;28;20012;-68
2021/06/19 06:42:41;;;;;;;;;;;37.20;51.40;;;;;;5014594;28;19924;-69
2021/06/19 06:45:08;;;;;;;;;;;37.40;48.80;;;;;;4996580;28;19924;-68
2021/06/19 06:47:33;;;;;;;;;;;37.70;48.90;;;;;;5014196;28;19921;-69
2021/06/19 06:49:59;;;;;;;;;;;38.20;48.10;;;;;;4980711;28;19918;-68
2021/06/19 06:52:25;;;;;;;;;;;38.50;45.90;;;;;;4980041;28;19971;-67
2021/06/19 06:54:50;;;;;;;;;;;38.60;46.00;;;;;;5013093;28;20293;-68
2021/06/19 06:57:16;;;;;;;;;;;38.40;44.10;;;;;;5013668;28;19918;-68
2021/06/19 06:59:41;;;;;;;;;;;37.80;43.70;;;;;;5014344;28;20436;-68
2021/06/19 07:02:07;;;;;;;;;;;38.00;44.60;;;;;;5014220;28;19928;-68
2021/06/19 07:04:32;;;;;;;;;;;38.20;43.60;;;;;;5013973;28;20378;-68
2021/06/19 07:06:58;;;;;;;;;;;38.80;44.60;;;;;;4996229;28;19921;-68
2021/06/19 07:09:24;;;;;;;;;;;40.10;43.20;;;;;;4996517;28;19956;-69
2021/06/19 07:11:49;;;;;;;;;;;41.00;41.20;;;;;;4994748;28;19953;-68
2021/06/19 07:14:15;;;;;;;;;;;41.40;39.40;;;;;;5014154;28;19918;-69
2021/06/19 07:16:40;;;;;;;;;;;41.80;39.10;;;;;;5013416;28;19944;-71
2021/06/19 07:19:06;;;;;;;;;;;42.20;37.30;;;;;;4996283;28;19929;-69
2021/06/19 07:21:31;;;;;;;;;;;42.50;36.50;;;;;;5012573;28;19924;-69
2021/06/19 07:23:57;;;;;;;;;;;42.80;36.40;;;;;;5012049;28;19992;-68
2021/06/19 07:26:23;;;;;;;;;;;43.50;36.30;;;;;;4996296;28;20289;-68
2021/06/19 07:28:48;;;;;;;;;;;44.60;35.50;;;;;;4995842;28;20289;-69
2021/06/19 07:31:14;;;;;;;;;;;45.60;34.40;;;;;;4995770;28;20000;-69
2021/06/19 07:33:40;;;;;;;;;;;46.10;32.50;;;;;;5013540;28;19921;-69
2021/06/19 07:36:06;;;;;;;;;;;46.20;32.00;;;;;;4995862;28;20326;-69
2021/06/19 07:38:32;;;;;;;;;;;46.60;31.50;;;;;;5013313;28;20333;-69
2021/06/19 07:40:58;;;;;;;;;;;46.60;30.10;;;;;;4996344;28;20095;-70
2021/06/19 07:43:24;;;;;;;;;;;46.10;29.70;;;;;;5012785;28;20294;-69
2021/06/19 07:45:51;;;;;;;;;;;46.10;30.00;;;;;;5013349;28;19918;-69
2021/06/19 07:48:16;;;;;;;;;;;46.40;29.60;;;;;;4995109;28;20446;-69
2021/06/19 07:50:42;;;;;;;;;;;46.10;29.10;;;;;;5013235;28;19929;-70
2021/06/19 07:53:08;;;;;;;;;;;46.10;29.20;;;;;;5013121;28;19949;-69
2021/06/19 07:55:33;;;;;;;;;;;46.30;29.30;;;;;;4995196;28;19917;-69
2021/06/19 07:57:59;;;;;;;;;;;46.80;28.90;;;;;;5012701;28;20305;-70
2021/06/19 08:00:25;;;;;;;;;;;47.00;28.30;;;;;;4995491;28;19917;-70
2021/06/19 08:02:50;;;;;;;;;;;47.00;28.10;;;;;;4995193;28;20389;-69
2021/06/19 08:05:16;;;;;;;;;;;47.20;28.00;;;;;;5013032;28;20024;-70
2021/06/19 08:07:42;;;;;;;;;;;47.50;27.40;;;;;;5012172;28;19929;-68
2021/06/19 08:10:08;;;;;;;;;;;47.50;26.70;;;;;;5012852;28;20008;-70
2021/06/19 08:12:35;;;;;;;;;;;47.40;26.30;;;;;;4995098;28;20422;-69
2021/06/19 08:15:01;;;;;;;;;;;47.20;26.20;;;;;;5012459;28;19917;-71
2021/06/19 08:17:27;;;;;;;;;;;47.50;26.40;;;;;;5012562;28;19917;-72
2021/06/19 08:19:52;;;;;;;;;;;47.60;25.80;;;;;;5011581;28;20298;-71
2021/06/19 08:22:18;;;;;;;;;;;47.60;25.80;;;;;;5010789;28;19924;-71
2021/06/19 08:24:46;;;;;;;;;;;48.00;26.00;;;;;;5012659;28;19921;-71
2021/06/19 08:27:12;;;;;;;;;;;48.80;25.90;;;;;;4994321;28;19926;-71
2021/06/19 08:29:38;;;;;;;;;;;49.80;25.60;;;;;;5012685;28;19951;-72
2021/06/19 08:32:04;;;;;;;;;;;50.70;25.10;;;;;;5012503;28;19960;-72
2021/06/19 08:34:29;;;;;;;;;;;51.20;24.50;;;;;;5012028;28;19921;-72
2021/06/19 08:36:55;;;;;;;;;;;51.30;24.30;;;;;;4994786;28;19949;-72
2021/06/19 08:39:20;;;;;;;;;;;51.30;24.20;;;;;;5012400;28;20400;-70
2021/06/19 08:41:48;;;;;;;;;;;51.60;24.10;;;;;;4977838;28;19917;-72
2021/06/19 08:44:22;;;;;;;;;;;52.00;23.90;;;;;;5011976;28;19917;-70
2021/06/19 08:46:49;;;;;;;;;;;52.30;23.70;;;;;;4993991;28;19918;-69
2021/06/19 08:49:15;;;;;;;;;;;52.50;23.50;;;;;;5012182;28;19917;-73
2021/06/19 08:51:41;;;;;;;;;;;52.30;23.00;;;;;;4994717;28;19924;-71
2021/06/19 08:54:07;;;;;;;;;;;51.80;23.10;;;;;;5011648;28;19918;-71
2021/06/19 08:56:32;;;;;;;;;;;51.30;23.40;;;;;;5012225;28;19972;-72
2021/06/19 08:59:00;;;;;;;;;;;51.00;23.30;;;;;;4993985;28;20378;-71
2021/06/19 09:01:26;;;;;;;;;;;51.10;23.30;;;;;;4994707;28;19917;-71
2021/06/19 09:03:52;;;;;;;;;;;51.30;23.70;;;;;;4994321;28;19952;-71
2021/06/19 09:06:22;;;;;;;;;;;51.80;23.40;;;;;;4994014;28;19924;-71
2021/06/19 09:09:00;;;;;;;;;;;52.50;23.00;;;;;;4994079;28;19921;-72
2021/06/19 09:11:33;;;;;;;;;;;52.80;22.60;;;;;;5011603;28;19924;-72
2021/06/19 09:14:03;;;;;;;;;;;52.70;22.40;;;;;;5011685;28;19917;-72
2021/06/19 09:16:30;;;;;;;;;;;52.80;22.70;;;;;;5011461;28;20013;-72
2021/06/19 09:18:55;;;;;;;;;;;53.30;22.30;;;;;;4994032;28;19913;-71
2021/06/19 09:21:26;;;;;;;;;;;53.30;22.30;;;;;;4994165;28;19917;-72
2021/06/19 09:23:52;;;;;;;;;;;53.30;22.60;;;;;;5011512;28;19968;-71
2021/06/19 09:26:22;;;;;;;;;;;54.10;22.80;;;;;;4994409;28;19944;-71
2021/06/19 09:29:07;;;;;;;;;;;54.90;22.30;;;;;;5011031;28;19956;-72
2021/06/19 09:31:53;;;;;;;;;;;54.50;21.80;;;;;;5011667;28;19960;-72
2021/06/19 09:34:23;;;;;;;;;;;52.10;21.90;;;;;;5010525;28;19929;-72
2021/06/19 09:36:49;;;;;;;;;;;49.10;22.50;;;;;;5011488;28;20306;-71
2021/06/19 09:39:16;;;;;;;;;;;47.60;23.90;;;;;;5011079;28;19925;-71
2021/06/19 09:41:43;;;;;;;;;;;47.60;24.50;;;;;;5010367;28;19917;-72
2021/06/19 09:44:09;;;;;;;;;;;47.80;24.50;;;;;;4976969;28;20319;-72
2021/06/19 09:46:35;;;;;;;;;;;47.10;24.40;;;;;;5011640;28;19972;-71
2021/06/19 09:49:16;;;;;;;;;;;47.00;25.00;;;;;;5010660;28;19925;-72
2021/06/19 09:51:49;;;;;;;;;;;48.00;25.00;;;;;;5004279;28;19921;-72
2021/06/19 09:54:15;;;;;;;;;;;49.20;24.90;;;;;;5009335;28;19918;-71
2021/06/19 09:56:50;;;;;;;;;;;50.50;24.20;;;;;;5010062;28;19924;-71
2021/06/19 09:59:20;;;;;;;;;;;50.70;23.30;;;;;;4993853;28;19945;-71
2021/06/19 10:01:46;;;;;;;;;;;49.50;23.80;;;;;;5010857;28;19917;-71
2021/06/19 10:04:17;;;;;;;;;;;47.90;23.60;;;;;;4993491;28;19918;-71
2021/06/19 10:06:43;;;;;;;;;;;47.80;24.80;;;;;;4978296;28;19964;-72
2021/06/19 10:09:09;;;;;;;;;;;48.90;24.70;;;;;;5010892;28;19922;-71
2021/06/19 10:11:34;;;;;;;;;;;48.30;23.60;;;;;;5011110;28;20329;-71
2021/06/19 10:14:01;;;;;;;;;;;47.70;24.50;;;;;;5008428;28;20275;-70
2021/06/19 10:16:28;;;;;;;;;;;48.40;24.90;;;;;;5000636;28;19918;-71
2021/06/19 10:18:54;;;;;;;;;;;49.70;24.40;;;;;;5005412;28;19918;-71
2021/06/19 10:21:20;;;;;;;;;;;50.20;23.70;;;;;;4991367;28;19924;-71
2021/06/19 10:23:46;;;;;;;;;;;50.70;24.00;;;;;;4992853;28;19922;-71
2021/06/19 10:26:12;;;;;;;;;;;51.30;23.40;;;;;;5007837;28;19949;-71
2021/06/19 10:28:48;;;;;;;;;;;50.70;23.50;;;;;;5010236;28;19975;-72
2021/06/19 10:31:19;;;;;;;;;;;51.70;23.70;;;;;;5009672;28;20016;-71
2021/06/19 10:33:45;;;;;;;;;;;52.60;23.10;;;;;;5007290;28;19933;-73
2021/06/19 10:36:11;;;;;;;;;;;52.80;22.80;;;;;;4998371;28;19949;-73
2021/06/19 10:38:51;;;;;;;;;;;52.90;22.50;;;;;;5007269;28;20364;-73
2021/06/19 10:41:17;;;;;;;;;;;53.10;22.60;;;;;;4977161;28;20401;-72
2021/06/19 10:43:50;;;;;;;;;;;53.30;22.50;;;;;;5006930;28;19961;-72
2021/06/19 10:46:27;;;;;;;;;;;53.80;22.60;;;;;;5004564;28;19918;-73
2021/06/19 10:48:54;;;;;;;;;;;54.20;22.40;;;;;;5005959;28;20317;-73
2021/06/19 10:51:21;;;;;;;;;;;54.60;22.00;;;;;;5014378;28;19918;-72
2021/06/19 10:54:05;;;;;;;;;;;54.70;22.10;;;;;;4998104;28;19963;-73
2021/06/19 10:56:43;;;;;;;;;;;55.00;22.20;;;;;;5013802;28;19925;-71
2021/06/19 10:59:17;;;;;;;;;;;55.50;21.80;;;;;;5013778;28;19957;-72
2021/06/19 11:01:43;;;;;;;;;;;55.50;21.80;;;;;;5014048;28;19921;-73
2021/06/19 11:04:28;;;;;;;;;;;54.40;21.60;;;;;;5014030;28;20354;-73
2021/06/19 11:06:54;;;;;;;;;;;53.60;21.70;;;;;;4995894;28;19941;-72
2021/06/19 11:09:34;;;;;;;;;;;52.40;22.10;;;;;;5012636;28;19918;-72
2021/06/19 11:12:02;;;;;;;;;;;52.40;22.20;;;;;;4999215;28;19917;-73
2021/06/19 11:14:40;;;;;;;;;;;52.20;22.30;;;;;;5013918;28;19917;-73
2021/06/19 11:17:26;;;;;;;;;;;52.10;22.20;;;;;;5013034;28;19925;-72
2021/06/19 11:19:58;;;;;;;;;;;51.90;22.50;;;;;;4969846;28;20132;-72
2021/06/19 11:22:40;;;;;;;;;;;52.00;22.30;;;;;;5013605;28;19925;-72
2021/06/19 11:25:11;;;;;;;;;;;52.40;22.10;;;;;;5006001;28;19917;-72
2021/06/19 11:27:57;;;;;;;;;;;52.20;22.00;;;;;;5003554;28;19948;-72
2021/06/19 11:30:35;;;;;;;;;;;51.70;22.00;;;;;;5004859;28;19992;-72
2021/06/19 11:33:15;;;;;;;;;;;50.50;21.90;;;;;;5005160;28;19997;-72
2021/06/19 11:35:45;;;;;;;;;;;48.40;22.50;;;;;;5003158;28;19931;-71
2021/06/19 11:38:11;;;;;;;;;;;46.20;23.20;;;;;;4986466;28;20023;-72
2021/06/19 11:40:36;;;;;;;;;;;44.20;24.00;;;;;;5011753;28;20283;-71
2021/06/19 11:43:03;;;;;;;;;;;42.40;24.70;;;;;;5001833;28;19939;-71
2021/06/19 11:45:28;;;;;;;;;;;40.90;25.80;;;;;;5005145;28;19914;-72
2021/06/19 11:48:01;;;;;;;;;;;40.00;26.40;;;;;;5012118;28;20386;-71
2021/06/19 11:50:34;;;;;;;;;;;39.70;27.30;;;;;;5013274;28;19921;-71
2021/06/19 11:53:18;;;;;;;;;;;40.00;27.40;;;;;;4994979;28;20397;-72
2021/06/19 11:55:43;;;;;;;;;;;40.70;27.40;;;;;;4995237;28;19926;-72
2021/06/19 11:58:09;;;;;;;;;;;41.00;27.00;;;;;;4997175;28;20386;-66
2021/06/19 12:00:51;;;;;;;;;;;40.60;27.00;;;;;;5005150;28;20290;-65
2021/06/19 12:03:21;;;;;;;;;;;40.20;27.50;;;;;;5007760;28;19925;-66
2021/06/19 12:05:47;;;;;;;;;;;39.80;28.10;;;;;;5012721;28;20012;-66
2021/06/19 12:08:13;;;;;;;;;;;39.80;28.40;;;;;;5011708;28;20020;-68
2021/06/19 12:10:39;;;;;;;;;;;40.00;28.30;;;;;;5008898;28;20338;-68
2021/06/19 12:13:05;;;;;;;;;;;39.50;28.10;;;;;;5006316;28;19918;-67
2021/06/19 12:15:32;;;;;;;;;;;38.70;28.40;;;;;;5003942;28;19926;-67
2021/06/19 12:17:58;;;;;;;;;;;37.90;28.60;;;;;;5011671;28;19918;-67
2021/06/19 12:20:24;;;;;;;;;;;37.30;29.10;;;;;;5011642;28;19953;-67
2021/06/19 12:22:50;;;;;;;;;;;36.80;29.60;;;;;;5012171;28;19952;-67
2021/06/19 12:25:29;;;;;;;;;;;36.30;30.00;;;;;;5010835;28;20001;-67
2021/06/19 12:27:55;;;;;;;;;;;35.90;30.30;;;;;;4973787;28;19928;-67
2021/06/19 12:30:21;;;;;;;;;;;35.80;31.20;;;;;;4993195;28;19918;-67
2021/06/19 12:32:46;;;;;;;;;;;35.80;31.40;;;;;;4993611;28;19917;-68
2021/06/19 12:35:13;;;;;;;;;;;35.90;31.80;;;;;;5011502;28;19921;-67
2021/06/19 12:37:40;;;;;;;;;;;36.00;31.80;;;;;;5012240;28;19922;-67
2021/06/19 12:40:09;;;;;;;;;;;35.80;31.60;;;;;;5011876;28;19921;-67
2021/06/19 12:42:39;;;;;;;;;;;35.50;31.80;;;;;;5012184;28;19971;-67
2021/06/19 12:45:11;;;;;;;;;;;35.30;32.00;;;;;;5011924;28;20429;-68
2021/06/19 12:47:39;;;;;;;;;;;35.00;32.10;;;;;;5011910;28;19981;-67
2021/06/19 12:50:05;;;;;;;;;;;34.60;32.00;;;;;;4994755;28;19917;-67
2021/06/19 12:52:31;;;;;;;;;;;34.20;32.20;;;;;;5011519;28;20012;-67
2021/06/19 12:55:07;;;;;;;;;;;34.00;32.90;;;;;;5012139;28;19945;-67
2021/06/19 12:57:33;;;;;;;;;;;33.80;33.10;;;;;;4993903;28;19921;-67
2021/06/19 12:59:58;;;;;;;;;;;33.80;33.00;;;;;;5012076;28;20251;-66
2021/06/19 13:02:24;;;;;;;;;;;33.70;33.40;;;;;;5011658;28;19917;-68
2021/06/19 13:04:49;;;;;;;;;;;33.60;33.70;;;;;;5011779;28;20374;-66
2021/06/19 13:07:16;;;;;;;;;;;33.60;33.90;;;;;;5011550;28;19922;-67
2021/06/19 13:09:52;;;;;;;;;;;33.50;34.00;;;;;;4993734;28;19917;-66
2021/06/19 13:12:20;;;;;;;;;;;33.40;34.30;;;;;;4994303;28;19918;-67
2021/06/19 13:14:47;;;;;;;;;;;33.30;34.30;;;;;;5010989;28;19925;-66
2021/06/19 13:17:13;;;;;;;;;;;33.20;34.40;;;;;;5011242;28;19928;-71
2021/06/19 13:19:41;;;;;;;;;;;32.90;34.50;;;;;;5011386;28;19967;-71
2021/06/19 13:22:06;;;;;;;;;;;32.80;34.80;;;;;;5010973;28;20267;-71
2021/06/19 13:24:33;;;;;;;;;;;32.70;35.20;;;;;;5011894;28;20384;-71
2021/06/19 13:27:18;;;;;;;;;;;32.80;35.40;;;;;;4976789;28;19918;-71
2021/06/19 13:29:57;;;;;;;;;;;32.70;35.60;;;;;;5011499;28;19949;-70
2021/06/19 13:32:22;;;;;;;;;;;32.80;35.80;;;;;;4993517;28;19960;-70
2021/06/19 13:34:52;;;;;;;;;;;32.80;35.80;;;;;;5010183;28;20004;-71
2021/06/19 13:37:18;;;;;;;;;;;32.80;35.70;;;;;;5009408;28;19917;-71
2021/06/19 13:39:47;;;;;;;;;;;32.80;35.60;;;;;;5009983;28;20466;-70
2021/06/19 13:42:16;;;;;;;;;;;32.70;35.70;;;;;;5011568;28;19917;-71
2021/06/19 13:44:48;;;;;;;;;;;32.60;35.50;;;;;;5011450;28;19924;-69
2021/06/19 13:47:15;;;;;;;;;;;32.50;35.40;;;;;;5009319;28;20236;-71
2021/06/19 13:49:41;;;;;;;;;;;32.40;35.60;;;;;;5009808;28;19964;-70
2021/06/19 13:52:07;;;;;;;;;;;32.30;35.70;;;;;;5011431;28;19921;-71
2021/06/19 13:54:40;;;;;;;;;;;32.30;36.00;;;;;;5011029;28;19929;-70
2021/06/19 13:57:06;;;;;;;;;;;32.30;36.10;;;;;;5011219;28;19953;-69
2021/06/19 13:59:35;;;;;;;;;;;32.30;36.20;;;;;;5011523;28;20263;-69
2021/06/19 14:02:01;;;;;;;;;;;32.30;36.20;;;;;;5010979;28;19918;-71
2021/06/19 14:04:29;;;;;;;;;;;32.40;36.10;;;;;;5011465;28;19925;-69
2021/06/19 14:06:55;;;;;;;;;;;32.30;36.00;;;;;;5010555;28;19921;-70
2021/06/19 14:09:20;;;;;;;;;;;32.30;36.10;;;;;;5011479;28;19923;-70
2021/06/19 14:11:46;;;;;;;;;;;32.30;36.20;;;;;;5010077;28;19917;-70
2021/06/19 14:14:12;;;;;;;;;;;32.30;36.40;;;;;;4999043;28;19918;-70
2021/06/19 14:16:37;;;;;;;;;;;32.20;36.50;;;;;;4991178;28;20005;-69